Time;durP1;ratioP1;P1;durP2;ratioP2;P2;SDS_P1;SDS_P2;PMS_P1;PMS_P2;Temp;Humidity;BMP_temperature;BMP_pressure;BME280_temperature;BME280_humidity;BME280_pressure;Samples;Min_cycle;Max_cycle;Signal;HPM_P1;HPM_P2
2023/12/03 00:00:33;;;;;;;8.07;4.10;;;;;;;0.01;71.80;98481.91;4512027;31;35147;-96
2023/12/03 00:03:00;;;;;;;14.90;10.23;;;;;;;-0.16;72.11;98510.88;4481047;31;33485;-95
2023/12/03 00:05:28;;;;;;;13.07;9.98;;;;;;;0.03;70.67;98510.00;4471206;31;32729;-94
2023/12/03 00:07:56;;;;;;;14.30;9.63;;;;;;;-0.08;71.85;98518.03;4482581;31;33572;-91
2023/12/03 00:10:24;;;;;;;9.57;4.75;;;;;;;-0.06;71.85;98536.84;4472462;31;34953;-94
2023/12/03 00:12:51;;;;;;;14.70;10.10;;;;;;;-0.25;72.29;98535.13;4505912;31;34476;-94
2023/12/03 00:15:19;;;;;;;13.57;10.13;;;;;;;-0.38;72.11;98537.94;4488416;31;31819;-94
2023/12/03 00:17:51;;;;;;;15.02;9.95;;;;;;;-0.10;71.56;98557.00;4485217;31;34653;-91
2023/12/03 00:20:19;;;;;;;13.20;10.13;;;;;;;-0.31;72.09;98556.91;4469271;31;33793;-90
2023/12/03 00:22:47;;;;;;;14.30;9.63;;;;;;;-0.06;70.74;98553.78;4467902;31;34437;-93
2023/12/03 00:25:15;;;;;;;14.52;10.18;;;;;;;0.22;70.30;98563.50;4477674;31;33155;-92
2023/12/03 00:27:43;;;;;;;11.60;8.27;;;;;;;-0.20;71.69;98571.00;4470746;31;32920;-91
2023/12/03 00:30:11;;;;;;;7.32;3.05;;;;;;;0.03;70.65;98592.41;4469250;31;33426;-93
2023/12/03 00:32:39;;;;;;;11.98;8.57;;;;;;;0.19;69.67;98609.25;4480842;31;33876;-95
2023/12/03 00:35:07;;;;;;;11.80;8.77;;;;;;;0.17;69.71;98621.06;4478627;31;33584;-94
2023/12/03 00:37:34;;;;;;;13.98;9.38;;;;;;;0.21;69.62;98613.63;4467607;31;32474;-92
2023/12/03 00:40:04;;;;;;;12.23;9.23;;;;;;;0.05;69.87;98620.53;4488064;31;32798;-95
2023/12/03 00:42:32;;;;;;;12.37;9.15;;;;;;;0.08;69.82;98613.03;4483488;31;33547;-92
2023/12/03 00:45:00;;;;;;;12.70;8.60;;;;;;;0.02;70.47;98630.59;4488932;31;32946;-93
2023/12/03 00:47:30;;;;;;;8.55;3.05;;;;;;;-0.31;71.02;98635.84;4509118;31;33804;-91
2023/12/03 00:49:58;;;;;;;8.82;3.55;;;;;;;-0.05;69.63;98655.78;4471839;31;34271;-93
2023/12/03 00:52:26;;;;;;;11.80;8.50;;;;;;;-0.12;70.15;98671.56;4473198;31;33784;-91
2023/12/03 00:54:54;;;;;;;13.52;9.05;;;;;;;-0.03;69.08;98673.69;4473106;31;33785;-92
2023/12/03 00:57:22;;;;;;;15.00;4.85;;;;;;;0.11;69.87;98689.59;4478968;31;34068;-90
2023/12/03 00:59:50;;;;;;;13.05;9.18;;;;;;;-0.26;70.34;98696.44;4471410;31;33403;-95
2023/12/03 01:02:18;;;;;;;8.15;4.53;;;;;;;-0.04;69.56;98693.22;4488433;31;33109;-95
2023/12/03 01:04:45;;;;;;;10.23;3.25;;;;;;;-0.17;70.40;98685.78;4480105;31;33968;-91
2023/12/03 01:07:13;;;;;;;11.85;8.70;;;;;;;0.01;69.26;98679.81;4486624;31;33803;-90
2023/12/03 01:09:41;;;;;;;11.82;8.75;;;;;;;-0.01;68.87;98682.28;4489276;31;33744;-88
2023/12/03 01:12:09;;;;;;;8.35;3.45;;;;;;;-0.45;70.32;98693.81;4514085;31;32600;-89
2023/12/03 01:14:36;;;;;;;7.12;3.72;;;;;;;-0.16;69.96;98692.63;4491742;31;33470;-89
2023/12/03 01:17:04;;;;;;;5.32;3.25;;;;;;;-0.17;70.23;98687.47;4462612;31;34637;-89
2023/12/03 01:19:31;;;;;;;10.90;4.40;;;;;;;-0.40;70.37;98701.66;4485343;31;33501;-90
2023/12/03 01:21:59;;;;;;;6.45;3.33;;;;;;;-0.14;70.69;98706.31;4513419;31;34711;-82
2023/12/03 01:24:28;;;;;;;11.57;4.45;;;;;;;-0.41;70.32;98710.09;4510116;31;33525;-89
2023/12/03 01:26:55;;;;;;;11.77;9.07;;;;;;;-0.15;69.89;98704.59;4512169;31;34279;-89
2023/12/03 01:29:23;;;;;;;14.27;10.73;;;;;;;-0.08;69.97;98696.41;4499376;31;34028;-88
2023/12/03 01:31:51;;;;;;;12.68;9.10;;;;;;;-0.03;69.54;98684.75;4497739;31;34563;-89
2023/12/03 01:34:18;;;;;;;14.32;10.13;;;;;;;-0.29;70.12;98697.94;4495736;31;32583;-89
2023/12/03 01:36:46;;;;;;;9.98;3.95;;;;;;;-0.29;70.40;98710.69;4497981;31;34734;-90
2023/12/03 01:39:13;;;;;;;11.23;5.18;;;;;;;-0.13;69.49;98695.31;4482521;31;34061;-90
2023/12/03 01:41:41;;;;;;;13.45;10.00;;;;;;;-0.34;70.37;98707.94;4499112;31;34379;-91
2023/12/03 01:44:08;;;;;;;5.70;3.15;;;;;;;-0.45;70.78;98719.25;4497380;31;33240;-91
2023/12/03 01:46:36;;;;;;;7.90;4.20;;;;;;;-0.57;71.01;98713.53;4472952;31;33365;-88
2023/12/03 01:49:04;;;;;;;8.35;4.15;;;;;;;-0.27;69.41;98726.91;4487167;31;34027;-82
2023/12/03 01:51:31;;;;;;;13.52;10.25;;;;;;;-0.38;70.08;98728.06;4499565;31;34764;-88
2023/12/03 01:53:59;;;;;;;6.85;3.25;;;;;;;-0.68;71.13;98746.13;4497550;31;34113;-90
2023/12/03 01:56:27;;;;;;;7.95;3.37;;;;;;;-0.58;70.80;98734.72;4503174;31;33756;-91
2023/12/03 01:58:55;;;;;;;10.13;4.97;;;;;;;-0.38;70.24;98736.59;4484400;31;34148;-91
2023/12/03 02:01:23;;;;;;;16.02;10.63;;;;;;;-0.54;70.97;98742.59;4483300;31;34499;-89
2023/12/03 02:03:51;;;;;;;15.60;10.88;;;;;;;-0.54;70.77;98742.59;4482216;31;32845;-88
2023/12/03 02:06:20;;;;;;;12.52;9.80;;;;;;;-0.68;70.98;98751.22;4488271;31;33526;-82
2023/12/03 02:08:48;;;;;;;8.00;4.70;;;;;;;-0.53;70.32;98746.00;4511754;31;34903;-92
2023/12/03 02:11:16;;;;;;;12.55;10.10;;;;;;;-0.62;70.79;98751.53;4498776;31;34196;-91
2023/12/03 02:13:45;;;;;;;11.95;9.50;;;;;;;-0.46;70.67;98739.53;4484313;31;32184;-93
2023/12/03 02:16:12;;;;;;;14.63;10.27;;;;;;;-0.54;70.42;98759.53;4489761;31;33567;-89
2023/12/03 02:18:40;;;;;;;12.98;9.68;;;;;;;-0.71;70.32;98765.47;4498651;31;33699;-90
2023/12/03 02:21:09;;;;;;;13.35;9.68;;;;;;;-0.64;70.41;98773.50;4485849;31;33530;-92
2023/12/03 02:23:36;;;;;;;7.65;3.78;;;;;;;-0.23;69.79;98791.59;4459623;31;32976;-88
2023/12/03 02:26:04;;;;;;;13.00;10.18;;;;;;;-0.36;69.10;98795.22;4500260;31;34673;-90
2023/12/03 02:28:31;;;;;;;8.20;3.95;;;;;;;-0.46;69.32;98814.25;4487070;31;34157;-89
2023/12/03 02:31:00;;;;;;;8.35;4.20;;;;;;;-0.62;70.25;98819.37;4495362;31;32994;-91
2023/12/03 02:33:28;;;;;;;8.32;3.42;;;;;;;-0.73;71.04;98809.53;4486352;31;33216;-93
2023/12/03 02:35:56;;;;;;;10.43;5.15;;;;;;;-0.46;70.17;98805.75;4496901;31;32763;-92
2023/12/03 02:38:23;;;;;;;13.52;10.32;;;;;;;-0.51;70.10;98805.53;4486094;31;34530;-89
2023/12/03 02:40:51;;;;;;;13.13;10.18;;;;;;;-0.47;69.71;98804.87;4474272;31;33866;-81
2023/12/03 02:43:19;;;;;;;7.82;3.72;;;;;;;-0.51;69.96;98816.59;4506494;31;34048;-90
2023/12/03 02:45:46;;;;;;;10.00;3.92;;;;;;;-0.87;70.81;98814.69;4489134;31;34185;-88
2023/12/03 02:48:13;;;;;;;9.70;4.45;;;;;;;-0.63;70.22;98818.50;4500952;31;33919;-87
2023/12/03 02:50:41;;;;;;;9.15;3.78;;;;;;;-0.67;70.46;98819.16;4495346;31;33947;-91
2023/12/03 02:53:09;;;;;;;12.55;10.30;;;;;;;-0.65;70.01;98848.09;4469638;32;32460;-89
2023/12/03 02:55:37;;;;;;;13.73;10.23;;;;;;;-0.78;70.39;98873.72;4476637;32;33598;-89
2023/12/03 02:58:04;;;;;;;6.50;3.85;;;;;;;-0.69;70.06;98886.91;4480652;32;33826;-89
2023/12/03 03:00:32;;;;;;;12.25;9.85;;;;;;;-0.76;70.34;98895.03;4480852;32;33944;-91
2023/12/03 03:02:59;;;;;;;13.85;10.63;;;;;;;-0.76;70.51;98892.47;4480978;32;34182;-91
2023/12/03 03:05:27;;;;;;;8.90;3.67;;;;;;;-0.76;69.72;98887.38;4470064;32;34694;-91
2023/12/03 03:07:55;;;;;;;12.18;10.20;;;;;;;-0.60;69.86;98900.16;4469267;32;33702;-91
2023/12/03 03:10:23;;;;;;;13.95;10.38;;;;;;;-0.97;70.88;98902.41;4477241;32;35097;-93
2023/12/03 03:12:58;;;;;;;6.75;3.53;;;;;;;-0.73;69.40;98913.00;4471680;32;33921;-93
2023/12/03 03:15:26;;;;;;;9.68;4.60;;;;;;;-0.81;70.14;98942.28;4481077;32;32847;-93
2023/12/03 03:17:54;;;;;;;11.65;9.55;;;;;;;-0.42;68.72;98940.06;4457279;32;33105;-94
2023/12/03 03:20:23;;;;;;;13.25;10.45;;;;;;;-0.29;68.17;98940.81;4482559;32;33846;-93
2023/12/03 03:22:50;;;;;;;12.63;9.50;;;;;;;-0.55;69.08;98951.31;4469715;32;34446;-93
2023/12/03 03:25:18;;;;;;;9.15;3.83;;;;;;;-0.74;69.26;98960.50;4455350;32;33859;-93
2023/12/03 03:27:45;;;;;;;12.80;10.40;;;;;;;-0.55;68.49;98966.56;4477122;32;33738;-92
2023/12/03 03:30:13;;;;;;;12.20;9.40;;;;;;;-0.83;69.53;98967.66;4483166;32;33843;-91
2023/12/03 03:32:41;;;;;;;6.30;3.53;;;;;;;-0.64;69.56;98969.53;4456342;32;33225;-91
2023/12/03 03:35:10;;;;;;;7.57;3.58;;;;;;;-0.44;68.26;98974.78;4466609;32;33677;-94
2023/12/03 03:37:37;;;;;;;9.45;4.47;;;;;;;-0.81;68.81;98983.88;4454990;32;33719;-92
2023/12/03 03:40:06;;;;;;;7.22;4.05;;;;;;;-0.53;67.92;98987.87;4483778;32;33993;-92
2023/12/03 03:42:33;;;;;;;12.23;8.93;;;;;;;-0.46;67.87;99007.78;4479119;32;33869;-92
2023/12/03 03:45:01;;;;;;;5.62;3.53;;;;;;;-0.53;68.06;99011.72;4468430;32;33820;-91
2023/12/03 03:47:28;;;;;;;7.95;3.55;;;;;;;-0.53;67.71;99016.81;4454914;32;33865;-92
2023/12/03 03:49:56;;;;;;;11.25;9.00;;;;;;;-0.18;66.37;99015.25;4462389;32;34223;-92
2023/12/03 03:52:24;;;;;;;12.40;8.82;;;;;;;-0.46;67.52;99017.13;4483816;31;33263;-93
2023/12/03 03:54:51;;;;;;;9.80;5.05;;;;;;;-0.63;67.25;99013.69;4495813;31;34004;-85
2023/12/03 03:57:19;;;;;;;10.75;4.80;;;;;;;-0.69;67.98;99019.28;4495057;31;33651;-93
2023/12/03 03:59:47;;;;;;;11.77;8.75;;;;;;;-0.89;67.63;99040.25;4499681;31;34331;-91
2023/12/03 04:02:15;;;;;;;10.07;8.23;;;;;;;-0.96;67.89;99038.16;4456835;31;32824;-92
2023/12/03 04:04:43;;;;;;;11.15;8.80;;;;;;;-0.90;67.82;99047.00;4471330;32;32937;-92
2023/12/03 04:07:11;;;;;;;11.40;8.38;;;;;;;-0.56;67.43;99042.09;4471606;31;34007;-93
2023/12/03 04:09:39;;;;;;;5.57;3.50;;;;;;;-0.70;66.58;99053.19;4483275;31;34300;-91
2023/12/03 04:12:07;;;;;;;4.57;2.58;;;;;;;-0.62;66.15;99046.84;4493079;31;33285;-91
2023/12/03 04:14:35;;;;;;;7.62;3.15;;;;;;;-0.79;66.04;99062.87;4498229;31;34338;-91
2023/12/03 04:17:03;;;;;;;8.82;4.28;;;;;;;-0.72;66.19;99064.94;4471788;32;34173;-94
2023/12/03 04:19:31;;;;;;;10.57;8.35;;;;;;;-0.68;66.44;99060.91;4470663;32;33403;-93
2023/12/03 04:21:59;;;;;;;8.45;4.22;;;;;;;-0.91;66.77;99067.25;4478079;31;32914;-92
2023/12/03 04:24:26;;;;;;;12.48;8.77;;;;;;;-0.78;67.03;99077.34;4493504;31;32805;-93
2023/12/03 04:26:54;;;;;;;9.40;3.37;;;;;;;-0.89;67.30;99086.03;4468785;31;33275;-94
2023/12/03 04:29:21;;;;;;;12.88;10.05;;;;;;;-1.01;67.95;99093.87;4486144;31;32819;-92
2023/12/03 04:31:51;;;;;;;5.37;3.05;;;;;;;-1.01;66.75;99097.28;4475991;32;32270;-94
2023/12/03 04:34:19;;;;;;;13.73;10.23;;;;;;;-0.84;66.35;99087.16;4485142;31;32810;-94
2023/12/03 04:36:47;;;;;;;13.02;10.10;;;;;;;-0.99;67.74;99084.63;4486511;31;33560;-96
2023/12/03 04:39:15;;;;;;;12.70;9.70;;;;;;;-1.09;68.09;99093.44;4485753;31;33250;-95
2023/12/03 04:41:49;;;;;;;6.22;3.70;;;;;;;-1.21;67.92;99090.19;4473008;32;32192;-94
2023/12/03 04:44:17;;;;;;;13.32;9.98;;;;;;;-0.76;66.48;99102.09;4482741;31;33003;-93
2023/12/03 04:46:45;;;;;;;13.13;10.35;;;;;;;-0.79;66.67;99098.50;4472307;32;33061;-81
2023/12/03 04:49:12;;;;;;;15.77;11.40;;;;;;;-0.83;66.95;99101.69;4490133;31;33770;-93
2023/12/03 04:51:40;;;;;;;13.82;10.93;;;;;;;-1.20;68.20;99112.28;4486882;31;32803;-95
2023/12/03 04:54:48;;;;;;;9.73;4.03;;;;;;;-0.82;67.01;99114.47;4480482;31;33014;-94
2023/12/03 04:57:16;;;;;;;12.37;9.80;;;;;;;-1.10;67.47;99116.22;4475882;31;32937;-92
2023/12/03 04:59:43;;;;;;;14.00;10.13;;;;;;;-1.33;67.83;99117.44;4512794;31;34115;-93
2023/12/03 05:02:11;;;;;;;12.00;4.68;;;;;;;-0.87;66.44;99117.53;4500475;31;32126;-94
2023/12/03 05:04:38;;;;;;;12.75;10.02;;;;;;;-0.77;66.03;99125.78;4488202;31;33140;-92
2023/12/03 05:07:06;;;;;;;6.75;3.10;;;;;;;-0.95;66.25;99141.66;4487315;31;33362;-92
2023/12/03 05:09:38;;;;;;;14.63;11.55;;;;;;;-1.00;65.14;99141.41;4494983;31;33030;-90
2023/12/03 05:12:06;;;;;;;8.95;3.90;;;;;;;-0.66;64.97;99146.75;4500389;31;34329;-93
2023/12/03 05:14:34;;;;;;;14.70;6.20;;;;;;;-1.02;65.72;99151.50;4487215;31;34084;-92
2023/12/03 05:17:02;;;;;;;14.63;11.40;;;;;;;-0.50;64.90;99158.69;4485598;31;34099;-96
2023/12/03 05:19:29;;;;;;;14.77;11.40;;;;;;;-0.74;65.15;99153.97;4484552;31;32543;-93
2023/12/03 05:21:58;;;;;;;9.55;5.43;;;;;;;-0.98;65.21;99153.44;4482000;31;32602;-93
2023/12/03 05:24:26;;;;;;;6.90;3.58;;;;;;;-1.08;65.50;99163.00;4484813;31;33809;-93
2023/12/03 05:26:53;;;;;;;6.72;3.60;;;;;;;-1.37;66.36;99151.97;4485510;31;34139;-92
2023/12/03 05:29:22;;;;;;;11.27;7.30;;;;;;;-1.52;66.98;99161.22;4499354;31;33435;-94
2023/12/03 05:31:49;;;;;;;7.62;3.70;;;;;;;-1.34;66.14;99151.28;4486939;31;31888;-91
2023/12/03 05:34:17;;;;;;;12.55;9.13;;;;;;;-1.35;65.66;99167.34;4505709;31;33604;-93
2023/12/03 05:36:45;;;;;;;13.98;9.73;;;;;;;-1.29;65.79;99186.41;4511513;31;34580;-90
2023/12/03 05:39:12;;;;;;;12.18;4.97;;;;;;;-0.87;63.10;99176.06;4490546;31;34432;-92
2023/12/03 05:41:40;;;;;;;13.13;4.35;;;;;;;-1.30;65.59;99184.63;4500226;31;33034;-92
2023/12/03 05:44:08;;;;;;;14.20;10.60;;;;;;;-1.44;65.76;99187.13;4513609;31;33589;-92
2023/12/03 05:46:42;;;;;;;5.60;2.90;;;;;;;-1.19;64.58;99192.00;4487228;31;34156;-92
2023/12/03 05:49:10;;;;;;;12.05;8.75;;;;;;;-1.38;65.38;99197.66;4483564;31;34104;-93
2023/12/03 05:51:42;;;;;;;5.15;2.87;;;;;;;-1.68;65.93;99202.66;4500760;31;34097;-93
2023/12/03 05:54:11;;;;;;;10.00;3.97;;;;;;;-1.85;66.42;99206.72;4487776;31;33740;-90
2023/12/03 05:56:38;;;;;;;8.18;3.97;;;;;;;-1.62;66.39;99204.69;4476060;31;33448;-92
2023/12/03 05:59:06;;;;;;;13.40;9.35;;;;;;;-1.64;65.74;99206.25;4477004;31;34250;-92
2023/12/03 06:01:34;;;;;;;7.03;3.83;;;;;;;-1.56;65.66;99216.09;4487828;31;32742;-82
2023/12/03 06:04:06;;;;;;;12.95;9.43;;;;;;;-1.89;65.72;99219.12;4502851;31;34557;-91
2023/12/03 06:06:35;;;;;;;7.12;4.12;;;;;;;-1.74;65.96;99230.25;4486540;31;33175;-90
2023/12/03 06:09:04;;;;;;;13.25;9.48;;;;;;;-1.34;65.28;99232.66;4475173;31;33215;-91
2023/12/03 06:11:32;;;;;;;13.62;10.00;;;;;;;-1.66;65.45;99235.81;4486553;31;32709;-91
2023/12/03 06:13:59;;;;;;;12.95;9.68;;;;;;;-1.62;65.56;99246.25;4487286;31;33258;-91
2023/12/03 06:16:30;;;;;;;6.40;3.20;;;;;;;-1.34;64.06;99241.16;4481169;31;33734;-93
2023/12/03 06:18:58;;;;;;;13.50;9.70;;;;;;;-1.39;64.47;99245.13;4475865;31;33307;-91
2023/12/03 06:21:25;;;;;;;4.68;2.47;;;;;;;-1.81;65.23;99246.78;4501143;31;32727;-91
2023/12/03 06:23:53;;;;;;;13.95;9.30;;;;;;;-1.55;64.74;99253.47;4481915;31;33493;-92
2023/12/03 06:26:21;;;;;;;8.00;3.75;;;;;;;-1.93;65.13;99247.66;4485779;31;33563;-92
2023/12/03 06:28:48;;;;;;;6.68;4.37;;;;;;;-1.52;64.59;99260.38;4486867;31;34323;-91
2023/12/03 06:31:16;;;;;;;8.63;5.22;;;;;;;-1.71;63.85;99273.62;4503730;31;34185;-94
2023/12/03 06:33:43;;;;;;;11.80;9.05;;;;;;;-1.51;63.86;99260.50;4483808;31;33205;-93
2023/12/03 06:36:11;;;;;;;12.65;9.18;;;;;;;-1.92;64.72;99264.66;4490418;31;33809;-94
2023/12/03 06:38:40;;;;;;;8.00;4.40;;;;;;;-1.44;63.07;99277.00;4472612;31;33033;-89
2023/12/03 06:41:08;;;;;;;13.20;10.15;;;;;;;-1.69;63.90;99279.69;4505361;31;34661;-91
2023/12/03 06:43:35;;;;;;;8.70;4.47;;;;;;;-1.62;63.67;99286.03;4472899;31;34078;-90
2023/12/03 06:46:03;;;;;;;7.10;3.75;;;;;;;-1.72;64.07;99285.44;4490091;31;33448;-91
2023/12/03 06:48:30;;;;;;;5.10;2.53;;;;;;;-1.74;64.77;99283.63;4467019;31;33405;-88
2023/12/03 06:50:58;;;;;;;7.55;3.17;;;;;;;-1.58;63.63;99304.12;4516119;31;33110;-90
2023/12/03 06:53:26;;;;;;;4.97;2.78;;;;;;;-1.60;64.17;99284.47;4486709;31;33037;-91
2023/12/03 06:55:54;;;;;;;8.10;2.70;;;;;;;-1.68;63.91;99296.69;4469431;31;33156;-91
2023/12/03 06:58:22;;;;;;;13.43;9.45;;;;;;;-1.89;64.60;99290.28;4473453;31;33032;-90
2023/12/03 07:00:52;;;;;;;6.12;3.45;;;;;;;-1.61;64.07;99287.78;4485719;31;32575;-83
2023/12/03 07:03:20;;;;;;;8.30;4.25;;;;;;;-1.50;63.26;99297.84;4510492;31;33751;-92
2023/12/03 07:05:59;;;;;;;10.43;4.15;;;;;;;-1.98;64.94;99316.84;4464213;31;32638;-91
2023/12/03 07:08:31;;;;;;;12.02;8.40;;;;;;;-1.70;64.18;99316.06;4476684;31;34030;-90
2023/12/03 07:10:59;;;;;;;13.00;9.13;;;;;;;-1.76;65.03;99318.22;4500732;31;33597;-90
2023/12/03 07:13:27;;;;;;;8.10;4.32;;;;;;;-1.60;64.12;99336.19;4474089;31;33864;-91
2023/12/03 07:15:55;;;;;;;5.47;3.28;;;;;;;-1.46;63.04;99344.69;4478427;31;33192;-89
2023/12/03 07:18:23;;;;;;;8.00;2.85;;;;;;;-1.43;63.99;99352.50;4459669;31;33821;-91
2023/12/03 07:20:50;;;;;;;12.00;7.95;;;;;;;-1.22;63.02;99360.59;4472358;31;32617;-94
2023/12/03 07:23:18;;;;;;;12.13;8.15;;;;;;;-1.63;63.92;99369.06;4477236;31;32858;-89
2023/12/03 07:25:48;;;;;;;7.20;3.22;;;;;;;-1.53;64.14;99370.50;4482977;31;33664;-90
2023/12/03 07:28:15;;;;;;;11.40;7.95;;;;;;;-1.59;63.86;99378.63;4472228;31;32930;-91
2023/12/03 07:30:44;;;;;;;14.27;9.65;;;;;;;-1.61;64.46;99374.22;4506337;31;33633;-92
2023/12/03 07:33:12;;;;;;;14.93;9.65;;;;;;;-1.55;64.60;99388.22;4487950;31;33881;-93
2023/12/03 07:35:40;;;;;;;14.55;9.98;;;;;;;-1.37;63.66;99390.16;4486161;31;33707;-94
2023/12/03 07:38:07;;;;;;;9.13;2.65;;;;;;;-1.47;63.90;99399.75;4487833;31;33764;-92
2023/12/03 07:40:38;;;;;;;7.15;3.95;;;;;;;-1.03;62.43;99404.19;4475331;31;32148;-91
2023/12/03 07:43:05;;;;;;;9.10;4.95;;;;;;;-1.09;62.51;99411.47;4506434;31;34677;-90
2023/12/03 07:45:33;;;;;;;8.13;3.65;;;;;;;-1.24;62.54;99407.94;4479695;31;34025;-93
2023/12/03 07:48:01;;;;;;;7.07;3.53;;;;;;;-1.16;62.44;99414.41;4481817;31;32752;-93
2023/12/03 07:50:30;;;;;;;15.18;9.93;;;;;;;-1.30;63.13;99431.31;4487236;31;34200;-92
2023/12/03 07:52:58;;;;;;;12.55;9.35;;;;;;;-1.24;63.43;99443.56;4466444;31;32537;-91
2023/12/03 07:55:26;;;;;;;14.55;9.82;;;;;;;-1.12;62.31;99443.47;4473875;31;33309;-93
2023/12/03 07:57:54;;;;;;;9.68;3.95;;;;;;;-1.44;63.24;99441.41;4489662;31;33729;-93
2023/12/03 08:00:21;;;;;;;7.22;3.90;;;;;;;-1.20;63.24;99449.72;4502792;31;33462;-94
2023/12/03 08:02:49;;;;;;;11.48;5.45;;;;;;;-1.52;63.69;99436.69;4485517;31;33566;-94
2023/12/03 08:05:17;;;;;;;13.18;4.22;;;;;;;-1.33;63.13;99448.94;4476765;31;34221;-94
2023/12/03 08:07:45;;;;;;;11.25;3.97;;;;;;;-0.84;61.73;99452.00;4472468;31;33891;-94
2023/12/03 08:10:13;;;;;;;12.85;4.68;;;;;;;-0.86;61.87;99443.41;4489383;31;33033;-94
2023/12/03 08:12:40;;;;;;;8.57;3.40;;;;;;;-0.66;62.33;99447.19;4475626;31;32939;-93
2023/12/03 08:15:08;;;;;;;11.98;8.77;;;;;;;-0.59;61.67;99434.03;4500138;31;33687;-94
2023/12/03 08:17:37;;;;;;;5.95;3.75;;;;;;;-0.92;62.40;99444.69;4488195;31;34616;-96
2023/12/03 08:20:05;;;;;;;11.85;8.82;;;;;;;-1.02;62.58;99444.13;4494452;31;33546;-91
2023/12/03 08:22:33;;;;;;;10.98;7.55;;;;;;;-0.98;61.93;99451.19;4478309;31;33369;-94
2023/12/03 08:25:01;;;;;;;7.35;3.50;;;;;;;-1.09;62.02;99454.72;4487394;31;33519;-91
2023/12/03 08:27:28;;;;;;;8.40;2.50;;;;;;;-1.32;63.05;99453.25;4512716;31;34004;-92
2023/12/03 08:29:57;;;;;;;11.40;7.95;;;;;;;-1.31;62.82;99461.75;4484675;31;32428;-89
2023/12/03 08:32:24;;;;;;;10.82;7.62;;;;;;;-1.49;64.06;99457.25;4503130;31;33871;-91
2023/12/03 08:34:52;;;;;;;6.78;2.58;;;;;;;-1.18;63.01;99461.75;4514812;31;34872;-91
2023/12/03 08:37:20;;;;;;;11.27;7.55;;;;;;;-1.33;62.43;99463.31;4472141;31;32582;-91
2023/12/03 08:39:48;;;;;;;5.50;2.90;;;;;;;-1.16;62.28;99478.00;4487494;31;33250;-88
2023/12/03 08:42:17;;;;;;;7.40;3.17;;;;;;;-1.28;62.29;99461.97;4514435;31;33487;-92
2023/12/03 08:44:44;;;;;;;12.35;8.77;;;;;;;-0.82;61.60;99483.53;4486038;31;34853;-91
2023/12/03 08:47:13;;;;;;;10.88;8.35;;;;;;;-0.98;61.41;99468.13;4485441;31;33836;-85
2023/12/03 08:49:41;;;;;;;10.25;7.68;;;;;;;-1.23;62.53;99473.28;4508620;31;33319;-91
2023/12/03 08:52:08;;;;;;;11.68;8.73;;;;;;;-0.94;62.02;99474.28;4487115;31;33819;-93
2023/12/03 08:54:36;;;;;;;10.40;7.78;;;;;;;-0.72;61.61;99469.72;4484695;31;33211;-92
2023/12/03 08:57:04;;;;;;;6.57;3.55;;;;;;;-0.96;61.00;99446.16;4474078;31;33771;-91
2023/12/03 08:59:32;;;;;;;8.05;3.20;;;;;;;-0.73;60.37;99460.31;4487591;31;33739;-91
2023/12/03 09:02:00;;;;;;;9.63;7.47;;;;;;;-1.04;61.83;99471.12;4478204;31;34396;-92
2023/12/03 09:04:27;;;;;;;10.35;8.07;;;;;;;-0.98;61.32;99493.56;4485002;31;33975;-87
2023/12/03 09:06:55;;;;;;;3.83;2.70;;;;;;;-1.10;61.99;99487.66;4486560;31;34804;-93
2023/12/03 09:09:22;;;;;;;4.97;3.53;;;;;;;-0.85;61.21;99510.47;4481010;31;33365;-91
2023/12/03 09:11:50;;;;;;;11.63;3.50;;;;;;;-0.88;61.14;99495.00;4485481;31;33785;-92
2023/12/03 09:14:18;;;;;;;5.60;3.65;;;;;;;-0.79;60.44;99503.22;4485200;31;33225;-91
2023/12/03 09:16:46;;;;;;;11.15;8.18;;;;;;;-0.77;61.02;99499.09;4476365;31;34022;-92
2023/12/03 09:19:33;;;;;;;7.53;3.35;;;;;;;-0.72;60.38;99510.44;4490261;31;33560;-92
2023/12/03 09:22:21;;;;;;;10.48;7.32;;;;;;;-0.54;59.43;99506.50;4480077;31;33879;-91
2023/12/03 09:24:49;;;;;;;13.27;4.43;;;;;;;-0.79;60.18;99515.97;4500681;31;34261;-91
2023/12/03 09:27:16;;;;;;;5.72;2.37;;;;;;;-0.69;59.86;99513.19;4510543;31;34462;-89
2023/12/03 09:29:44;;;;;;;11.40;8.15;;;;;;;-0.78;60.73;99527.91;4479984;31;33344;-91
2023/12/03 09:32:12;;;;;;;8.02;3.30;;;;;;;-0.64;59.50;99523.69;4492163;31;34553;-88
2023/12/03 09:34:39;;;;;;;9.27;3.95;;;;;;;-0.48;59.96;99533.16;4486272;31;33533;-92
2023/12/03 09:37:07;;;;;;;12.07;8.27;;;;;;;-0.76;59.86;99524.69;4503776;31;34130;-84
2023/12/03 09:39:35;;;;;;;11.75;8.45;;;;;;;-0.71;60.37;99519.00;4495005;31;33120;-91
2023/12/03 09:42:03;;;;;;;9.00;3.92;;;;;;;-0.66;59.69;99518.47;4471583;31;32841;-89
2023/12/03 09:44:40;;;;;;;9.52;4.07;;;;;;;-0.73;59.85;99516.31;4471759;31;33721;-90
2023/12/03 09:47:08;;;;;;;7.62;4.32;;;;;;;-0.55;59.03;99517.47;4481666;31;33944;-90
2023/12/03 09:49:38;;;;;;;5.68;2.62;;;;;;;-0.24;58.78;99529.53;4470931;31;32027;-91
2023/12/03 09:52:08;;;;;;;11.10;7.68;;;;;;;-0.68;59.05;99508.97;4473015;31;33959;-90
2023/12/03 09:54:36;;;;;;;9.55;4.28;;;;;;;-0.61;59.53;99499.25;4475682;31;34082;-90
2023/12/03 09:57:06;;;;;;;9.10;6.32;;;;;;;-0.34;58.93;99509.38;4486199;31;33033;-89
2023/12/03 09:59:34;;;;;;;7.30;2.75;;;;;;;-0.39;58.71;99538.78;4485528;31;32447;-89
2023/12/03 10:02:04;;;;;;;10.82;7.43;;;;;;;-0.02;57.83;99539.38;4477364;31;32894;-91
2023/12/03 10:04:32;;;;;;;7.15;3.25;;;;;;;-0.16;58.24;99541.06;4497210;31;34507;-89
2023/12/03 10:07:03;;;;;;;6.93;3.28;;;;;;;-0.20;57.94;99541.69;4468445;31;33144;-90
2023/12/03 10:09:32;;;;;;;6.75;2.67;;;;;;;-0.10;58.15;99527.84;4480217;31;33624;-90
2023/12/03 10:12:04;;;;;;;5.25;2.60;;;;;;;0.01;58.11;99538.69;4483654;31;33327;-92
2023/12/03 10:14:32;;;;;;;6.62;3.15;;;;;;;0.13;57.55;99547.06;4482158;31;32977;-90
2023/12/03 10:17:00;;;;;;;8.20;3.72;;;;;;;-0.30;58.62;99562.31;4470833;31;32766;-90
2023/12/03 10:19:28;;;;;;;9.40;6.62;;;;;;;-0.07;58.63;99553.53;4482697;31;33871;-91
2023/12/03 10:21:56;;;;;;;6.28;3.10;;;;;;;0.17;57.47;99556.66;4479363;31;34140;-91
2023/12/03 10:24:24;;;;;;;7.43;3.15;;;;;;;0.12;57.65;99560.63;4476922;31;34374;-91
2023/12/03 10:26:55;;;;;;;9.45;6.45;;;;;;;0.18;58.21;99566.94;4459596;31;33855;-89
2023/12/03 10:29:23;;;;;;;5.95;3.20;;;;;;;0.07;58.30;99561.97;4482833;31;33465;-93
2023/12/03 10:31:52;;;;;;;8.85;6.47;;;;;;;0.37;57.68;99566.34;4472723;31;32970;-92
2023/12/03 10:34:21;;;;;;;6.50;3.08;;;;;;;0.20;58.00;99555.19;4467571;31;33953;-93
2023/12/03 10:36:49;;;;;;;7.15;3.30;;;;;;;0.08;58.53;99558.66;4481726;31;33188;-84
2023/12/03 10:39:19;;;;;;;5.28;2.45;;;;;;;0.11;57.52;99551.19;4480203;31;32095;-91
2023/12/03 10:41:49;;;;;;;11.00;6.87;;;;;;;0.30;58.24;99551.47;4467837;31;34007;-84
2023/12/03 10:44:24;;;;;;;6.85;2.95;;;;;;;0.22;58.33;99553.59;4510488;31;34128;-89
2023/12/03 10:47:02;;;;;;;9.37;7.07;;;;;;;0.20;58.42;99539.88;4478131;31;32430;-90
2023/12/03 10:49:31;;;;;;;10.60;7.07;;;;;;;0.20;58.09;99523.69;4471178;31;32989;-92
2023/12/03 10:51:59;;;;;;;6.37;3.33;;;;;;;0.01;58.46;99538.69;4481626;31;34356;-90
2023/12/03 10:54:27;;;;;;;7.60;4.25;;;;;;;0.04;59.34;99528.66;4475950;31;33049;-89
2023/12/03 10:56:55;;;;;;;10.13;7.47;;;;;;;-0.14;59.85;99536.97;4479664;31;33864;-89
2023/12/03 10:59:27;;;;;;;7.15;3.60;;;;;;;-0.10;59.94;99538.03;4468639;31;33806;-90
2023/12/03 11:01:58;;;;;;;9.63;6.78;;;;;;;0.01;58.45;99541.25;4491175;31;33324;-91
2023/12/03 11:04:38;;;;;;;9.38;7.00;;;;;;;-0.20;59.47;99556.09;4484705;31;33821;-90
2023/12/03 11:07:07;;;;;;;8.18;6.30;;;;;;;0.09;59.19;99573.16;4488534;31;35153;-90
2023/12/03 11:09:36;;;;;;;9.77;7.10;;;;;;;-0.10;59.27;99584.78;4486864;31;34174;-85
2023/12/03 11:12:12;;;;;;;9.18;6.80;;;;;;;-0.27;59.61;99580.31;4493324;31;34549;-90
2023/12/03 11:14:41;;;;;;;8.75;6.20;;;;;;;0.09;59.37;99576.59;4497854;31;34371;-82
2023/12/03 11:17:38;;;;;;;6.78;2.85;;;;;;;0.21;58.73;99576.44;4487371;31;32967;-89
2023/12/03 11:20:11;;;;;;;6.25;3.37;;;;;;;-0.04;58.93;99580.09;4487528;31;33393;-91
2023/12/03 11:23:16;;;;;;;8.93;6.30;;;;;;;0.12;58.41;99589.53;4481164;31;33303;-89
2023/12/03 11:26:04;;;;;;;7.68;3.42;;;;;;;0.19;58.38;99588.22;4494328;31;33460;-90
2023/12/03 11:28:31;;;;;;;7.75;3.10;;;;;;;0.24;58.80;99586.84;4488065;31;33361;-89
2023/12/03 11:30:59;;;;;;;9.20;6.82;;;;;;;0.82;57.64;99595.38;4489839;31;33227;-90
2023/12/03 11:33:27;;;;;;;5.32;2.87;;;;;;;0.44;57.89;99610.97;4481982;31;34129;-89
2023/12/03 11:35:58;;;;;;;5.72;2.60;;;;;;;0.23;58.27;99603.81;4471973;31;33499;-89